createdAt,value
2018-05-17T00:01:51.659Z,25.60
2018-05-17T00:05:54.282Z,27.43
2018-05-17T00:10:08.082Z,29.70
2018-05-17T00:14:10.635Z,28.37
2018-05-17T00:18:13.154Z,28.47
2018-05-17T00:22:16.078Z,23.20
2018-05-17T00:26:28.848Z,25.20
2018-05-17T00:30:31.504Z,26.23
2018-05-17T00:34:34.046Z,28.50
2018-05-17T00:38:37.364Z,27.33
2018-05-17T00:42:40.731Z,21.97
2018-05-17T00:46:43.279Z,22.73
2018-05-17T00:50:45.807Z,28.67
2018-05-17T00:54:49.115Z,24.10
2018-05-17T00:58:51.635Z,22.70
2018-05-17T01:02:55.063Z,32.57
2018-05-17T01:06:58.350Z,26.77
2018-05-17T01:11:01.392Z,26.53
2018-05-17T01:15:03.922Z,23.70
2018-05-17T01:19:06.575Z,24.93
2018-05-17T01:23:09.096Z,28.90
2018-05-17T01:27:11.651Z,28.73
2018-05-17T01:31:14.168Z,29.03
2018-05-17T01:35:17.570Z,25.70
2018-05-17T01:39:20.090Z,27.27
2018-05-17T01:43:22.635Z,28.87
2018-05-17T01:47:25.210Z,27.83
2018-05-17T01:51:27.758Z,30.87
2018-05-17T01:55:30.283Z,25.43
2018-05-17T01:59:33.591Z,29.23
2018-05-17T02:03:36.115Z,28.27
2018-05-17T02:07:39.426Z,25.83
2018-05-17T02:11:41.951Z,34.23
2018-05-17T02:15:45.266Z,35.83
2018-05-17T02:19:47.787Z,25.23
2018-05-17T02:23:50.371Z,30.00
2018-05-17T02:27:53.671Z,25.23
2018-05-17T02:32:03.531Z,25.13
2018-05-17T02:36:06.066Z,22.30
2018-05-17T02:40:08.695Z,23.67
2018-05-17T02:44:11.982Z,24.70
2018-05-17T02:48:15.023Z,32.00
2018-05-17T02:52:18.328Z,29.13
2018-05-17T02:56:20.882Z,24.07
2018-05-17T03:00:23.408Z,23.03
2018-05-17T03:04:25.969Z,19.30
2018-05-17T03:08:29.264Z,20.67
2018-05-17T03:12:31.810Z,21.23
2018-05-17T03:16:34.330Z,22.00
2018-05-17T03:20:36.891Z,23.27
2018-05-17T03:24:39.402Z,22.40
2018-05-17T03:28:41.959Z,19.03
2018-05-17T03:32:44.482Z,21.37
2018-05-17T03:36:47.038Z,18.20
2018-05-17T03:40:50.318Z,25.93
2018-05-17T03:44:53.259Z,19.03
2018-05-17T03:48:55.806Z,21.83
2018-05-17T03:52:58.442Z,19.60
2018-05-17T03:57:11.758Z,25.97
2018-05-17T04:01:26.145Z,20.00
2018-05-17T04:05:44.982Z,20.63
2018-05-17T04:09:47.524Z,23.37
2018-05-17T04:13:50.840Z,19.67
2018-05-17T04:17:53.754Z,20.10
2018-05-17T04:21:57.042Z,25.90
2018-05-17T04:26:01.615Z,18.10
2018-05-17T04:30:04.150Z,24.43
2018-05-17T04:34:06.692Z,21.60
2018-05-17T04:38:15.515Z,20.93
2018-05-17T04:42:18.054Z,19.73
2018-05-17T04:46:21.584Z,24.23
2018-05-17T04:50:24.840Z,24.30
2018-05-17T04:54:34.958Z,23.50
2018-05-17T04:58:37.502Z,20.60
2018-05-17T05:02:40.084Z,19.23
2018-05-17T05:06:42.591Z,21.47
2018-05-17T05:10:45.100Z,19.37
2018-05-17T05:14:47.746Z,20.77
2018-05-17T05:18:50.270Z,25.70
2018-05-17T05:22:53.591Z,16.60
2018-05-17T05:26:56.891Z,22.53
2018-05-17T05:30:59.530Z,18.20
2018-05-17T05:35:02.824Z,24.10
2018-05-17T05:39:05.385Z,20.80
2018-05-17T05:43:11.540Z,17.33
2018-05-17T05:47:14.083Z,21.60
2018-05-17T05:51:16.598Z,18.97
2018-05-17T05:55:19.152Z,20.80
2018-05-17T05:59:22.478Z,20.67
2018-05-17T06:03:25.807Z,22.17
2018-05-17T06:07:29.100Z,18.03
2018-05-17T06:11:31.663Z,21.57
2018-05-17T06:15:34.211Z,22.07
2018-05-17T06:19:36.757Z,16.83
2018-05-17T06:23:48.050Z,15.63
2018-05-17T06:27:51.015Z,14.87
2018-05-17T06:31:53.536Z,16.30
2018-05-17T06:35:56.411Z,18.70
2018-05-17T06:39:58.935Z,15.07
2018-05-17T06:44:01.541Z,16.40
2018-05-17T06:48:04.810Z,18.07
2018-05-17T06:52:07.374Z,14.20
2018-05-17T06:56:09.902Z,15.00
2018-05-17T07:00:12.543Z,17.93
2018-05-17T07:04:15.839Z,19.97
2018-05-17T07:12:51.961Z,18.10
2018-05-17T07:16:54.515Z,16.17
2018-05-17T07:20:57.802Z,21.50
2018-05-17T07:25:00.385Z,12.53
2018-05-17T07:29:09.319Z,13.07
2018-05-17T07:33:11.880Z,13.50
2018-05-17T07:37:14.408Z,12.87
2018-05-17T07:41:17.830Z,13.40
2018-05-17T07:45:20.352Z,12.10
2018-05-17T07:49:23.668Z,14.30
2018-05-17T07:53:26.967Z,11.53
2018-05-17T07:57:33.061Z,13.03
2018-05-17T08:01:56.475Z,13.07
2018-05-17T08:06:00.207Z,13.93
2018-05-17T08:10:03.494Z,15.60
2018-05-17T08:14:06.370Z,19.00
2018-05-17T08:18:11.875Z,15.50
2018-05-17T08:22:22.995Z,15.70
2018-05-17T08:26:25.524Z,13.57
2018-05-17T08:30:28.970Z,18.97
2018-05-17T08:34:32.251Z,15.73
2018-05-17T08:38:34.801Z,18.63
2018-05-17T08:42:37.394Z,22.60
2018-05-17T08:46:39.894Z,19.47
2018-05-17T08:50:43.175Z,14.80
2018-05-17T08:54:45.721Z,14.30
2018-05-17T08:58:48.234Z,15.07
2018-05-17T09:02:51.878Z,20.67
2018-05-17T09:06:54.406Z,13.30
2018-05-17T09:10:56.964Z,12.60
2018-05-17T09:15:04.763Z,18.17
2018-05-17T09:19:07.328Z,14.40
2018-05-17T09:23:09.841Z,14.97
2018-05-17T09:27:12.382Z,15.43
2018-05-17T09:31:14.895Z,14.93
2018-05-17T09:35:17.450Z,21.73
2018-05-17T09:39:19.979Z,16.80
2018-05-17T09:43:22.527Z,19.53
2018-05-17T09:47:25.039Z,18.20
2018-05-17T09:51:27.683Z,19.20
2018-05-17T09:55:32.974Z,19.10
2018-05-17T09:59:35.613Z,20.13
2018-05-17T10:03:38.124Z,18.10
2018-05-17T10:07:40.754Z,13.90
2018-05-17T10:11:44.034Z,20.73
2018-05-17T10:15:46.714Z,19.27
2018-05-17T10:19:49.239Z,19.97
2018-05-17T10:23:51.875Z,16.93
2018-05-17T10:27:54.395Z,18.90
2018-05-17T10:31:57.699Z,15.53
2018-05-17T10:36:00.214Z,19.40
2018-05-17T10:40:03.238Z,17.87
2018-05-17T10:44:06.518Z,24.47
2018-05-17T10:48:14.474Z,17.53
2018-05-17T10:52:16.997Z,15.53
2018-05-17T10:56:20.314Z,19.47
2018-05-17T11:00:34.470Z,16.67
2018-05-17T11:04:39.051Z,16.83
2018-05-17T11:08:43.359Z,17.17
2018-05-17T11:12:45.999Z,20.30
2018-05-17T11:16:56.735Z,17.13
2018-05-17T11:21:04.159Z,22.87
2018-05-17T11:25:06.715Z,21.40
2018-05-17T11:29:09.364Z,16.20
2018-05-17T11:33:12.300Z,19.40
2018-05-17T11:37:15.579Z,26.43
2018-05-17T11:41:25.786Z,22.90
2018-05-17T11:45:29.362Z,25.67
2018-05-17T11:49:39.306Z,22.03
2018-05-17T11:53:44.311Z,24.33
2018-05-17T11:57:46.844Z,24.47
2018-05-17T12:02:09.444Z,22.00
2018-05-17T12:06:14.059Z,25.23
2018-05-17T12:10:16.614Z,29.80
2018-05-17T12:14:20.079Z,22.50
2018-05-17T12:18:22.634Z,32.23
2018-05-17T12:22:25.166Z,25.97
2018-05-17T12:26:34.647Z,23.90
2018-05-17T12:30:37.171Z,30.37
2018-05-17T12:34:50.711Z,23.57
2018-05-17T12:38:53.239Z,27.03
2018-05-17T12:42:55.905Z,28.13
2018-05-17T12:46:59.111Z,22.67
2018-05-17T12:51:09.440Z,22.33
2018-05-17T12:55:12.035Z,25.40
2018-05-17T12:59:14.913Z,25.73
2018-05-17T13:03:30.538Z,27.30
2018-05-17T13:07:33.093Z,25.50
2018-05-17T13:11:35.620Z,27.10
2018-05-17T13:15:38.937Z,19.83
2018-05-17T13:19:41.575Z,25.73
2018-05-17T13:23:58.306Z,21.57
2018-05-17T13:28:01.610Z,27.90
2018-05-17T13:32:07.488Z,20.87
2018-05-17T13:36:18.979Z,26.03
2018-05-17T13:40:21.535Z,21.90
2018-05-17T13:44:26.756Z,26.80
2018-05-17T13:48:29.436Z,22.70
2018-05-17T13:52:31.962Z,20.30
2018-05-17T13:56:34.930Z,23.00
2018-05-17T14:00:37.494Z,25.80
2018-05-17T14:04:40.070Z,27.93
2018-05-17T14:08:43.540Z,25.47
2018-05-17T14:13:04.286Z,29.17
2018-05-17T14:17:09.840Z,25.70
2018-05-17T14:21:12.437Z,23.73
2018-05-17T14:25:38.566Z,23.27
2018-05-17T14:29:47.187Z,27.57
2018-05-17T14:33:51.511Z,22.87
2018-05-17T14:38:00.543Z,21.33
2018-05-17T14:42:03.069Z,21.17
2018-05-17T14:46:05.689Z,26.87
2018-05-17T14:50:11.090Z,23.47
2018-05-17T14:54:26.752Z,16.97
2018-05-17T14:58:35.910Z,16.53
2018-05-17T15:02:38.521Z,20.03
2018-05-17T15:06:41.089Z,24.27
2018-05-17T15:10:44.063Z,20.17
2018-05-17T15:14:54.358Z,17.23
2018-05-17T15:18:56.927Z,20.73
2018-05-17T15:22:59.455Z,19.20
2018-05-17T15:27:22.885Z,17.37
2018-05-17T15:31:25.432Z,13.53
2018-05-17T15:35:40.089Z,16.87
2018-05-17T15:39:47.798Z,13.70
2018-05-17T15:43:51.111Z,20.97
2018-05-17T15:47:53.705Z,21.87
2018-05-17T15:51:56.246Z,17.10
2018-05-17T15:56:01.473Z,20.60
2018-05-17T16:00:04.050Z,18.00
2018-05-17T16:04:06.580Z,16.70
2018-05-17T16:08:17.254Z,18.00
2018-05-17T16:12:19.778Z,19.30
2018-05-17T16:16:27.652Z,15.57
2018-05-17T16:20:34.729Z,19.27
2018-05-17T16:24:37.303Z,21.57
2018-05-17T16:28:40.794Z,23.23
2018-05-17T16:32:44.214Z,16.83
2018-05-17T16:41:19.031Z,18.50
2018-05-17T16:45:21.599Z,23.93
2018-05-17T16:49:26.094Z,22.97
2018-05-17T16:53:29.381Z,20.70
2018-05-17T16:57:31.938Z,21.37
2018-05-17T17:01:45.526Z,24.00
2018-05-17T17:05:54.802Z,19.50
2018-05-17T17:10:02.127Z,16.30
2018-05-17T17:14:05.179Z,19.83
2018-05-17T17:18:07.698Z,19.63
2018-05-17T17:22:12.955Z,19.23
2018-05-17T17:26:16.251Z,20.63
2018-05-17T17:30:18.908Z,22.00
2018-05-17T17:34:21.560Z,19.97
2018-05-17T17:38:24.039Z,10.73
2018-05-17T17:42:26.571Z,15.87
2018-05-17T17:46:29.544Z,20.17
2018-05-17T17:50:35.665Z,15.60
2018-05-17T17:54:38.585Z,16.43
2018-05-17T17:58:43.030Z,15.67
2018-05-17T18:02:45.599Z,14.77
2018-05-17T18:06:48.147Z,17.57
2018-05-17T18:10:55.095Z,16.53
2018-05-17T18:14:58.387Z,14.43
2018-05-17T18:19:01.169Z,21.10
2018-05-17T18:23:14.724Z,17.37
2018-05-17T18:27:17.407Z,13.73
2018-05-17T18:31:24.170Z,17.93
2018-05-17T18:35:26.796Z,21.43
2018-05-17T18:39:31.867Z,16.97
2018-05-17T18:43:46.060Z,18.70
2018-05-17T18:47:52.018Z,16.87
2018-05-17T18:51:55.926Z,21.80
2018-05-17T18:55:58.515Z,19.47
2018-05-17T19:00:13.240Z,17.40
2018-05-17T19:04:19.553Z,19.17
2018-05-17T19:08:22.115Z,25.20
2018-05-17T19:12:25.782Z,21.97
2018-05-17T19:16:28.419Z,18.47
2018-05-17T19:20:31.038Z,21.47
2018-05-17T19:24:40.294Z,22.77
2018-05-17T19:28:43.646Z,19.03
2018-05-17T19:32:46.957Z,15.40
2018-05-17T19:36:49.480Z,15.33
2018-05-17T19:40:52.056Z,19.57
2018-05-17T19:45:00.349Z,18.73
2018-05-17T19:49:02.995Z,15.97
2018-05-17T19:53:05.521Z,16.93
2018-05-17T19:57:08.852Z,14.80
2018-05-17T20:01:11.439Z,20.50
2018-05-17T20:05:14.797Z,16.87
2018-05-17T20:09:22.223Z,13.03
2018-05-17T20:13:35.124Z,17.77
2018-05-17T20:17:37.658Z,24.53
2018-05-17T20:21:50.976Z,20.10
2018-05-17T20:25:53.507Z,14.10
2018-05-17T20:29:57.482Z,22.63
2018-05-17T20:34:05.959Z,15.67
2018-05-17T20:38:08.539Z,14.47
2018-05-17T20:42:11.083Z,19.87
2018-05-17T20:46:21.759Z,16.27
2018-05-17T20:50:24.279Z,24.13
2018-05-17T20:54:46.820Z,20.63
2018-05-17T20:59:08.531Z,19.63
2018-05-17T21:03:12.598Z,21.27
2018-05-17T21:07:15.132Z,18.10
2018-05-17T21:11:19.723Z,18.20
2018-05-17T21:15:22.286Z,22.43
2018-05-17T21:19:24.879Z,21.80
2018-05-17T21:23:27.416Z,22.13
2018-05-17T21:27:32.004Z,14.63
2018-05-17T21:31:35.321Z,16.17
2018-05-17T21:35:37.891Z,18.60
2018-05-17T21:39:40.480Z,21.67
2018-05-17T21:43:43.785Z,19.83
2018-05-17T21:47:46.314Z,17.20
2018-05-17T21:51:48.967Z,18.30
2018-05-17T21:55:55.743Z,15.07
2018-05-17T21:59:58.308Z,17.13
2018-05-17T22:04:00.840Z,18.73
2018-05-17T22:08:03.829Z,15.43
2018-05-17T22:12:25.670Z,17.63
2018-05-17T22:16:29.019Z,15.93
2018-05-17T22:20:31.570Z,13.63
2018-05-17T22:24:34.247Z,21.73
2018-05-17T22:28:36.780Z,19.10
2018-05-17T22:32:39.452Z,25.30
2018-05-17T22:36:41.982Z,28.17
2018-05-17T22:40:44.535Z,22.00
2018-05-17T22:44:47.830Z,23.80
2018-05-17T22:48:50.401Z,20.30
2018-05-17T22:52:53.863Z,22.80
2018-05-17T22:57:08.171Z,26.40
2018-05-17T23:01:11.583Z,23.13
2018-05-17T23:05:22.076Z,21.30
2018-05-17T23:09:24.606Z,23.27
2018-05-17T23:13:28.027Z,19.57
2018-05-17T23:17:31.319Z,22.70
2018-05-17T23:21:33.883Z,27.07
2018-05-17T23:25:36.415Z,25.67
2018-05-17T23:29:39.083Z,21.70
2018-05-17T23:33:41.927Z,18.03
2018-05-17T23:37:44.519Z,24.37
2018-05-17T23:41:47.051Z,22.73
2018-05-17T23:45:49.687Z,23.10
2018-05-17T23:49:52.214Z,18.63
2018-05-17T23:53:54.773Z,18.67
2018-05-17T23:57:57.315Z,25.03
